createdAt,value
2022-11-18T00:01:39.204Z,95.40
2022-11-18T00:04:01.769Z,95.61
2022-11-18T00:06:25.350Z,95.22
2022-11-18T00:08:47.735Z,95.45
2022-11-18T00:11:39.976Z,95.08
2022-11-18T00:14:19.950Z,94.88
2022-11-18T00:16:41.409Z,94.70
2022-11-18T00:19:02.864Z,94.39
2022-11-18T00:21:24.295Z,94.76
2022-11-18T00:23:48.315Z,95.21
2022-11-18T00:26:12.473Z,95.17
2022-11-18T00:28:35.114Z,94.90
2022-11-18T00:31:13.768Z,95.62
2022-11-18T00:33:36.917Z,94.83
2022-11-18T00:35:59.285Z,94.69
2022-11-18T00:38:20.783Z,94.91
2022-11-18T00:40:42.370Z,94.91
2022-11-18T00:43:03.813Z,96.13
2022-11-18T00:45:25.289Z,95.81
2022-11-18T00:47:47.162Z,95.82
2022-11-18T00:50:09.220Z,96.30
2022-11-18T00:52:30.647Z,96.41
2022-11-18T00:54:52.112Z,97.58
2022-11-18T00:57:13.537Z,96.33
2022-11-18T00:59:35.015Z,95.86
2022-11-18T01:01:56.534Z,95.48
2022-11-18T01:04:18.232Z,95.25
2022-11-18T01:06:39.679Z,95.22
2022-11-18T01:09:01.150Z,96.82
2022-11-18T01:11:41.109Z,96.33
2022-11-18T01:14:02.753Z,97.04
2022-11-18T01:16:26.493Z,96.82
2022-11-18T01:18:48.353Z,96.25
2022-11-18T01:21:09.778Z,95.78
2022-11-18T01:23:31.280Z,95.67
2022-11-18T01:25:52.779Z,95.24
2022-11-18T01:28:18.879Z,95.12
2022-11-18T01:30:45.682Z,95.14
2022-11-18T01:33:07.847Z,95.32
2022-11-18T01:35:34.054Z,95.07
2022-11-18T01:37:55.521Z,95.34
2022-11-18T01:40:17.060Z,95.92
2022-11-18T01:42:38.603Z,95.88
2022-11-18T01:45:14.239Z,95.00
2022-11-18T01:47:49.427Z,95.10
2022-11-18T01:50:13.190Z,95.23
2022-11-18T01:52:35.398Z,94.97
2022-11-18T01:55:03.906Z,95.73
2022-11-18T01:57:28.088Z,95.28
2022-11-18T01:59:53.120Z,95.05
2022-11-18T02:02:15.263Z,94.38
2022-11-18T02:04:38.916Z,94.21
2022-11-18T02:07:00.762Z,94.09
2022-11-18T02:09:22.860Z,93.78
2022-11-18T02:11:56.472Z,93.58
2022-11-18T02:14:22.799Z,93.51
2022-11-18T02:16:50.997Z,93.64
2022-11-18T02:19:42.900Z,93.75
2022-11-18T02:22:41.266Z,94.27
2022-11-18T02:25:21.357Z,94.29
2022-11-18T02:27:54.607Z,93.94
2022-11-18T02:30:18.738Z,93.78
2022-11-18T02:32:54.294Z,93.69
2022-11-18T02:35:39.460Z,93.37
2022-11-18T02:38:39.671Z,93.59
2022-11-18T02:41:23.965Z,93.47
2022-11-18T02:43:49.943Z,93.45
2022-11-18T02:46:16.639Z,93.79
2022-11-18T02:48:44.710Z,93.77
2022-11-18T02:51:09.645Z,93.86
2022-11-18T02:53:33.753Z,93.95
2022-11-18T02:55:55.659Z,93.58
2022-11-18T02:58:20.903Z,94.64
2022-11-18T03:00:42.411Z,94.38
2022-11-18T03:03:26.065Z,94.34
2022-11-18T03:06:06.647Z,94.40
2022-11-18T03:08:37.344Z,94.54
2022-11-18T03:11:10.374Z,95.75
2022-11-18T03:13:56.506Z,95.39
2022-11-18T03:16:24.633Z,94.70
2022-11-18T03:19:12.665Z,94.58
2022-11-18T03:22:00.838Z,94.29
2022-11-18T03:24:28.965Z,95.50
2022-11-18T03:27:03.123Z,96.17
2022-11-18T03:29:34.774Z,95.73
2022-11-18T03:32:03.339Z,95.41
2022-11-18T03:34:36.358Z,94.76
2022-11-18T03:37:01.968Z,94.89
2022-11-18T03:39:28.111Z,94.58
2022-11-18T03:41:54.845Z,94.42
2022-11-18T03:44:21.193Z,94.33
2022-11-18T03:46:49.091Z,94.90
2022-11-18T03:49:17.229Z,94.97
2022-11-18T03:51:44.691Z,95.39
2022-11-18T03:54:15.871Z,95.88
2022-11-18T03:56:43.689Z,95.29
2022-11-18T03:59:11.974Z,95.29
2022-11-18T04:01:40.665Z,94.89
2022-11-18T04:04:02.253Z,94.45
2022-11-18T04:06:49.633Z,94.08
2022-11-18T04:09:18.450Z,93.89
2022-11-18T04:12:03.312Z,94.04
2022-11-18T04:14:24.807Z,93.87
2022-11-18T04:16:51.283Z,94.58
2022-11-18T04:19:12.771Z,94.36
2022-11-18T04:21:34.224Z,94.68
2022-11-18T04:23:56.103Z,94.08
2022-11-18T04:26:18.419Z,93.88
2022-11-18T04:28:39.879Z,93.71
2022-11-18T04:31:01.308Z,94.19
2022-11-18T04:33:22.755Z,95.39
2022-11-18T04:35:46.777Z,94.96
2022-11-18T04:38:08.241Z,94.61
2022-11-18T04:40:29.684Z,94.68
2022-11-18T04:42:51.135Z,94.51
2022-11-18T04:45:12.844Z,94.67
2022-11-18T04:47:34.273Z,94.50
2022-11-18T04:49:55.709Z,95.06
2022-11-18T04:52:17.510Z,95.42
2022-11-18T04:54:38.978Z,94.90
2022-11-18T04:57:00.502Z,94.41
2022-11-18T04:59:24.752Z,94.11
2022-11-18T05:01:46.572Z,95.84
2022-11-18T05:04:08.343Z,95.31
2022-11-18T05:06:30.729Z,94.94
2022-11-18T05:08:52.253Z,94.65
2022-11-18T05:11:32.358Z,94.46
2022-11-18T05:13:54.173Z,94.39
2022-11-18T05:16:15.600Z,94.34
2022-11-18T05:18:37.090Z,94.41
2022-11-18T05:20:58.546Z,94.24
2022-11-18T05:23:19.985Z,94.12
2022-11-18T05:25:41.403Z,94.13
2022-11-18T05:28:03.055Z,94.13
2022-11-18T05:30:24.500Z,93.93
2022-11-18T05:32:45.923Z,94.42
2022-11-18T05:35:07.892Z,95.70
2022-11-18T05:37:32.983Z,95.23
2022-11-18T05:39:54.421Z,95.15
2022-11-18T05:42:34.155Z,95.24
2022-11-18T05:44:58.435Z,96.64
2022-11-18T05:47:20.520Z,96.13
2022-11-18T05:49:41.983Z,95.94
2022-11-18T05:52:03.684Z,95.90
2022-11-18T05:54:26.383Z,95.77
2022-11-18T05:56:47.868Z,95.88
2022-11-18T05:59:09.314Z,96.67
2022-11-18T06:01:37.564Z,96.27
2022-11-18T06:04:01.346Z,95.89
2022-11-18T06:06:24.708Z,95.86
2022-11-18T06:08:56.207Z,95.60
2022-11-18T06:11:20.049Z,95.51
2022-11-18T06:13:51.996Z,95.43
2022-11-18T06:16:13.519Z,95.45
2022-11-18T06:18:36.053Z,95.41
2022-11-18T06:21:03.522Z,95.44
2022-11-18T06:23:25.355Z,95.77
2022-11-18T06:25:47.721Z,96.14
2022-11-18T06:28:12.126Z,96.12
2022-11-18T06:30:33.590Z,95.70
2022-11-18T06:32:55.047Z,95.62
2022-11-18T06:35:16.877Z,95.56
2022-11-18T06:37:38.397Z,95.46
2022-11-18T06:40:00.039Z,95.22
2022-11-18T06:42:39.974Z,96.08
2022-11-18T06:45:02.312Z,95.55
2022-11-18T06:47:23.893Z,95.50
2022-11-18T06:49:45.350Z,95.27
2022-11-18T06:52:06.790Z,95.14
2022-11-18T06:54:28.241Z,95.14
2022-11-18T06:56:49.818Z,95.04
2022-11-18T06:59:11.279Z,94.97
2022-11-18T07:01:36.254Z,95.24
2022-11-18T07:03:59.617Z,95.45
2022-11-18T07:06:23.311Z,94.91
2022-11-18T07:08:46.111Z,95.21
2022-11-18T07:11:10.412Z,94.94
2022-11-18T07:13:39.130Z,94.96
2022-11-18T07:16:10.253Z,95.16
2022-11-18T07:18:39.624Z,94.88
2022-11-18T07:21:09.230Z,95.23
2022-11-18T07:23:32.327Z,94.98
2022-11-18T07:25:55.782Z,94.97
2022-11-18T07:28:17.243Z,94.72
2022-11-18T07:30:38.811Z,95.83
2022-11-18T07:33:00.311Z,97.08
2022-11-18T07:35:21.768Z,96.05
2022-11-18T07:37:43.221Z,95.71
2022-11-18T07:40:05.259Z,95.60
2022-11-18T07:42:26.838Z,94.93
2022-11-18T07:44:48.309Z,94.85
2022-11-18T07:47:09.761Z,95.03
2022-11-18T07:49:31.227Z,95.14
2022-11-18T07:51:52.738Z,95.55
2022-11-18T07:54:17.109Z,96.01
2022-11-18T07:56:39.311Z,95.33
2022-11-18T07:59:00.811Z,95.21
2022-11-18T08:01:30.884Z,95.01
2022-11-18T08:03:52.602Z,95.52
2022-11-18T08:06:16.929Z,95.22
2022-11-18T08:08:39.010Z,95.00
2022-11-18T08:11:02.321Z,94.82
2022-11-18T08:13:24.847Z,94.67
2022-11-18T08:15:46.323Z,93.96
2022-11-18T08:18:13.370Z,93.93
2022-11-18T08:20:35.999Z,94.25
2022-11-18T08:22:57.429Z,95.15
2022-11-18T08:25:18.954Z,95.67
2022-11-18T08:27:40.463Z,94.79
2022-11-18T08:30:01.909Z,94.50
2022-11-18T08:32:23.424Z,94.56
2022-11-18T08:34:44.867Z,94.66
2022-11-18T08:37:06.374Z,94.31
2022-11-18T08:39:27.845Z,95.03
2022-11-18T08:41:49.343Z,95.16
2022-11-18T08:44:13.975Z,94.31
2022-11-18T08:46:35.420Z,95.08
2022-11-18T08:48:57.371Z,95.82
2022-11-18T08:51:19.001Z,96.09
2022-11-18T08:53:41.398Z,97.22
2022-11-18T08:56:03.176Z,98.35
2022-11-18T08:58:25.714Z,99.70
2022-11-18T09:00:47.178Z,100.00
2022-11-18T09:03:08.623Z,100.00
2022-11-18T09:05:30.093Z,100.00
2022-11-18T09:07:51.530Z,100.00
2022-11-18T09:10:13.091Z,100.00
2022-11-18T09:12:34.604Z,100.00
2022-11-18T09:17:37.545Z,100.00
2022-11-18T09:19:59.038Z,100.00
2022-11-18T09:22:20.457Z,100.00
2022-11-18T09:24:43.462Z,100.00
2022-11-18T09:27:08.669Z,100.00
2022-11-18T09:29:33.742Z,100.00
2022-11-18T09:31:55.263Z,100.00
2022-11-18T09:34:17.001Z,100.00
2022-11-18T09:36:38.727Z,100.00
2022-11-18T09:39:00.194Z,100.00
2022-11-18T09:41:43.719Z,100.00
2022-11-18T09:44:13.665Z,100.00
2022-11-18T09:47:12.937Z,100.00
2022-11-18T09:49:37.502Z,100.00
2022-11-18T09:52:04.768Z,100.00
2022-11-18T09:54:31.701Z,100.00
2022-11-18T09:56:55.276Z,100.00
2022-11-18T09:59:20.346Z,100.00
2022-11-18T10:01:42.718Z,100.00
2022-11-18T10:04:04.387Z,100.00
2022-11-18T10:06:32.226Z,100.00
2022-11-18T10:08:53.707Z,100.00
2022-11-18T10:11:19.406Z,100.00
2022-11-18T10:13:51.407Z,100.00
2022-11-18T10:16:56.624Z,100.00
2022-11-18T10:19:29.483Z,100.00
2022-11-18T10:22:33.983Z,100.00
2022-11-18T10:24:57.891Z,100.00
2022-11-18T10:27:20.116Z,100.00
2022-11-18T10:29:42.895Z,100.00
2022-11-18T10:32:17.019Z,100.00
2022-11-18T10:34:50.688Z,100.00
2022-11-18T10:38:00.635Z,100.00
2022-11-18T10:40:28.069Z,100.00
2022-11-18T10:42:49.555Z,100.00
2022-11-18T10:45:27.057Z,100.00
2022-11-18T10:48:09.860Z,100.00
2022-11-18T10:50:34.519Z,100.00
2022-11-18T10:52:55.959Z,100.00
2022-11-18T10:55:20.052Z,100.00
2022-11-18T10:57:45.413Z,100.00
2022-11-18T11:00:45.542Z,100.00
2022-11-18T11:03:33.965Z,100.00
2022-11-18T11:06:13.838Z,99.37
2022-11-18T11:08:37.364Z,99.98
2022-11-18T11:10:59.647Z,100.00
2022-11-18T11:13:23.671Z,99.82
2022-11-18T11:15:48.310Z,97.74
2022-11-18T11:18:41.485Z,97.11
2022-11-18T11:21:02.946Z,97.21
2022-11-18T11:23:25.535Z,97.11
2022-11-18T11:29:05.241Z,97.38
2022-11-18T11:31:32.439Z,98.60
2022-11-18T11:34:11.785Z,99.48
2022-11-18T11:36:56.014Z,100.00
2022-11-18T11:39:20.667Z,99.74
2022-11-18T11:41:49.047Z,99.68
2022-11-18T11:44:22.603Z,100.00
2022-11-18T11:47:23.413Z,100.00
2022-11-18T11:50:00.878Z,100.00
2022-11-18T11:53:01.178Z,100.00
2022-11-18T11:55:32.889Z,100.00
2022-11-18T11:58:13.028Z,100.00
2022-11-18T12:00:41.762Z,100.00
2022-11-18T12:03:46.091Z,100.00
2022-11-18T12:06:12.575Z,100.00
2022-11-18T12:08:34.191Z,100.00
2022-11-18T12:11:21.267Z,100.00
2022-11-18T12:13:59.377Z,100.00
2022-11-18T12:16:42.227Z,100.00
2022-11-18T12:19:16.885Z,100.00
2022-11-18T12:21:47.413Z,100.00
2022-11-18T12:24:18.085Z,100.00
2022-11-18T12:26:39.650Z,100.00
2022-11-18T12:29:21.402Z,100.00
2022-11-18T12:31:43.000Z,100.00
2022-11-18T12:34:16.827Z,100.00
2022-11-18T12:36:40.314Z,100.00
2022-11-18T12:39:23.686Z,100.00
2022-11-18T12:42:03.454Z,100.00
2022-11-18T12:44:29.590Z,100.00
2022-11-18T12:46:53.229Z,100.00
2022-11-18T12:49:24.276Z,100.00
2022-11-18T12:51:46.299Z,100.00
2022-11-18T12:54:23.639Z,100.00
2022-11-18T12:56:48.373Z,100.00
2022-11-18T12:59:13.045Z,98.86
2022-11-18T13:01:35.451Z,98.80
2022-11-18T13:04:14.805Z,98.83
2022-11-18T13:06:39.061Z,98.96
2022-11-18T13:09:29.296Z,99.39
2022-11-18T13:11:54.631Z,99.32
2022-11-18T13:14:45.615Z,99.38
2022-11-18T13:17:45.577Z,100.00
2022-11-18T13:20:18.435Z,100.00
2022-11-18T13:23:08.702Z,100.00
2022-11-18T13:25:30.206Z,100.00
2022-11-18T13:28:04.407Z,100.00
2022-11-18T13:30:27.603Z,100.00
2022-11-18T13:32:50.158Z,100.00
2022-11-18T13:35:18.318Z,100.00
2022-11-18T13:37:51.224Z,100.00
2022-11-18T13:41:04.095Z,100.00
2022-11-18T13:43:26.824Z,100.00
2022-11-18T13:45:48.303Z,100.00
2022-11-18T13:48:14.346Z,100.00
2022-11-18T13:50:40.689Z,100.00
2022-11-18T13:53:20.752Z,100.00
2022-11-18T13:55:51.031Z,100.00
2022-11-18T13:58:18.670Z,100.00
2022-11-18T14:00:40.171Z,100.00
2022-11-18T14:03:15.507Z,100.00
2022-11-18T14:05:36.935Z,100.00
2022-11-18T14:08:18.291Z,100.00
2022-11-18T14:10:42.982Z,100.00
2022-11-18T14:13:17.166Z,100.00
2022-11-18T14:15:43.618Z,100.00
2022-11-18T14:18:19.084Z,100.00
2022-11-18T14:20:40.633Z,100.00
2022-11-18T14:23:05.509Z,100.00
2022-11-18T14:25:31.187Z,100.00
2022-11-18T14:27:54.537Z,100.00
2022-11-18T14:30:33.046Z,100.00
2022-11-18T14:33:12.918Z,100.00
2022-11-18T14:35:35.046Z,100.00
2022-11-18T14:38:22.338Z,100.00
2022-11-18T14:40:38.154Z,100.00
2022-11-18T14:43:01.839Z,100.00
2022-11-18T14:45:24.183Z,100.00
2022-11-18T14:47:45.662Z,100.00
2022-11-18T14:50:14.331Z,100.00
2022-11-18T14:52:35.766Z,100.00
2022-11-18T14:54:57.243Z,100.00
2022-11-18T14:57:19.062Z,100.00
2022-11-18T14:59:40.528Z,100.00
2022-11-18T15:02:02.134Z,100.00
2022-11-18T15:04:25.198Z,100.00
2022-11-18T15:06:46.649Z,100.00
2022-11-18T15:09:08.192Z,100.00
2022-11-18T15:11:29.695Z,100.00
2022-11-18T15:13:51.155Z,100.00
2022-11-18T15:16:24.718Z,100.00
2022-11-18T15:18:49.261Z,100.00
2022-11-18T15:21:11.046Z,100.00
2022-11-18T15:23:32.499Z,100.00
2022-11-18T15:25:53.958Z,100.00
2022-11-18T15:28:15.407Z,100.00
2022-11-18T15:30:36.851Z,100.00
2022-11-18T15:32:58.311Z,100.00
2022-11-18T15:35:19.821Z,100.00
2022-11-18T15:37:41.526Z,100.00
2022-11-18T15:40:04.333Z,100.00
2022-11-18T15:42:25.786Z,100.00
2022-11-18T15:44:47.238Z,100.00
2022-11-18T15:47:08.666Z,99.61
2022-11-18T15:49:30.185Z,100.00
2022-11-18T15:51:51.698Z,100.00
2022-11-18T15:54:13.234Z,100.00
2022-11-18T15:56:35.164Z,100.00
2022-11-18T15:59:11.276Z,99.90
2022-11-18T16:01:35.104Z,100.00
2022-11-18T16:03:56.852Z,100.00
2022-11-18T16:06:18.421Z,100.00
2022-11-18T16:08:39.871Z,100.00
2022-11-18T16:11:19.823Z,100.00
2022-11-18T16:13:41.658Z,100.00
2022-11-18T16:16:03.125Z,100.00
2022-11-18T16:18:24.567Z,99.57
2022-11-18T16:20:46.100Z,99.69
2022-11-18T16:23:07.874Z,99.15
2022-11-18T16:25:29.394Z,99.15
2022-11-18T16:27:50.828Z,99.77
2022-11-18T16:30:32.939Z,99.99
2022-11-18T16:32:54.371Z,100.00
2022-11-18T16:35:15.935Z,100.00
2022-11-18T16:37:37.362Z,100.00
2022-11-18T16:39:58.812Z,100.00
2022-11-18T16:42:20.259Z,100.00
2022-11-18T16:44:42.019Z,100.00
2022-11-18T16:47:07.680Z,100.00
2022-11-18T16:49:32.490Z,100.00
2022-11-18T16:51:55.517Z,100.00
2022-11-18T16:54:18.340Z,99.97
2022-11-18T16:56:40.597Z,100.00
2022-11-18T16:59:07.705Z,100.00
2022-11-18T17:01:30.279Z,100.00
2022-11-18T17:03:53.335Z,100.00
2022-11-18T17:06:14.797Z,100.00
2022-11-18T17:08:36.767Z,100.00
2022-11-18T17:10:58.189Z,100.00
2022-11-18T17:13:19.611Z,100.00
2022-11-18T17:15:41.033Z,100.00
2022-11-18T17:18:02.493Z,100.00
2022-11-18T17:20:23.935Z,99.55
2022-11-18T17:22:45.363Z,99.18
2022-11-18T17:25:07.190Z,99.93
2022-11-18T17:27:28.656Z,100.00
2022-11-18T17:29:50.915Z,100.00
2022-11-18T17:32:12.327Z,100.00
2022-11-18T17:34:33.880Z,100.00
2022-11-18T17:36:55.332Z,100.00
2022-11-18T17:39:18.040Z,100.00
2022-11-18T17:41:58.122Z,100.00
2022-11-18T17:44:19.720Z,100.00
2022-11-18T17:46:41.952Z,100.00
2022-11-18T17:49:05.580Z,100.00
2022-11-18T17:51:28.594Z,99.99
2022-11-18T17:53:50.832Z,99.25
2022-11-18T17:56:12.253Z,98.80
2022-11-18T17:58:33.705Z,98.93
2022-11-18T18:00:55.182Z,97.79
2022-11-18T18:03:16.625Z,97.37
2022-11-18T18:05:38.036Z,98.26
2022-11-18T18:07:59.718Z,98.44
2022-11-18T18:10:21.771Z,98.35
2022-11-18T18:13:02.307Z,98.30
2022-11-18T18:15:23.748Z,98.03
2022-11-18T18:17:47.282Z,96.63
2022-11-18T18:20:09.605Z,97.25
2022-11-18T18:22:31.261Z,96.72
2022-11-18T18:24:52.707Z,96.60
2022-11-18T18:27:14.133Z,95.67
2022-11-18T18:29:35.558Z,96.31
2022-11-18T18:31:56.999Z,96.26
2022-11-18T18:34:19.275Z,95.81
2022-11-18T18:36:40.878Z,96.58
2022-11-18T18:39:02.939Z,96.73
2022-11-18T18:41:24.584Z,96.31
2022-11-18T18:43:46.706Z,96.73
2022-11-18T18:46:31.412Z,96.87
2022-11-18T18:48:52.961Z,97.13
2022-11-18T18:51:14.452Z,97.14
2022-11-18T18:53:35.964Z,97.63
2022-11-18T18:55:57.756Z,97.90
2022-11-18T18:58:19.187Z,97.87
2022-11-18T19:00:40.657Z,98.24
2022-11-18T19:03:02.110Z,98.55
2022-11-18T19:05:39.085Z,97.43
2022-11-18T19:08:05.230Z,97.36
2022-11-18T19:10:26.729Z,97.87
2022-11-18T19:12:52.130Z,98.34
2022-11-18T19:15:14.480Z,98.71
2022-11-18T19:17:36.140Z,98.58
2022-11-18T19:20:16.132Z,98.65
2022-11-18T19:22:38.298Z,98.78
2022-11-18T19:25:01.443Z,97.96
2022-11-18T19:27:23.604Z,97.67
2022-11-18T19:29:45.262Z,97.18
2022-11-18T19:32:06.707Z,96.45
2022-11-18T19:34:28.172Z,95.53
2022-11-18T19:36:50.099Z,96.04
2022-11-18T19:39:11.578Z,95.77
2022-11-18T19:41:33.026Z,94.84
2022-11-18T19:43:54.496Z,95.13
2022-11-18T19:46:15.933Z,95.55
2022-11-18T19:48:37.591Z,94.88
2022-11-18T19:51:05.508Z,94.70
2022-11-18T19:53:32.610Z,93.89
2022-11-18T19:55:55.653Z,93.20
2022-11-18T19:58:17.126Z,92.15
2022-11-18T20:00:38.576Z,92.49
2022-11-18T20:03:00.010Z,94.05
2022-11-18T20:05:44.615Z,94.48
2022-11-18T20:08:08.520Z,94.31
2022-11-18T20:10:30.004Z,93.60
2022-11-18T20:12:52.645Z,93.61
2022-11-18T20:15:14.207Z,93.82
2022-11-18T20:17:35.642Z,93.44
2022-11-18T20:19:57.147Z,93.54
2022-11-18T20:22:18.623Z,93.52
2022-11-18T20:24:40.121Z,94.98
2022-11-18T20:27:01.641Z,94.77
2022-11-18T20:29:23.114Z,94.42
2022-11-18T20:31:44.573Z,94.64
2022-11-18T20:34:06.110Z,94.37
2022-11-18T20:36:33.140Z,93.31
2022-11-18T20:38:56.980Z,93.15
2022-11-18T20:41:20.210Z,92.91
2022-11-18T20:43:43.877Z,92.89
2022-11-18T20:46:07.614Z,93.08
2022-11-18T20:48:32.133Z,92.95
2022-11-18T20:50:53.831Z,93.96
2022-11-18T20:53:16.359Z,93.38
2022-11-18T20:55:38.152Z,93.05
2022-11-18T20:57:59.590Z,91.84
2022-11-18T21:00:21.058Z,92.32
2022-11-18T21:02:42.477Z,91.49
2022-11-18T21:05:04.288Z,91.21
2022-11-18T21:07:25.781Z,90.46
2022-11-18T21:09:47.853Z,89.52
2022-11-18T21:12:09.360Z,88.92
2022-11-18T21:14:30.838Z,88.62
2022-11-18T21:17:03.515Z,88.83
2022-11-18T21:19:26.397Z,89.48
2022-11-18T21:21:49.071Z,89.93
2022-11-18T21:24:19.993Z,89.82
2022-11-18T21:26:42.642Z,89.46
2022-11-18T21:29:07.388Z,89.66
2022-11-18T21:31:29.539Z,90.03
2022-11-18T21:33:52.674Z,89.73
2022-11-18T21:36:14.266Z,89.99
2022-11-18T21:38:35.712Z,89.47
2022-11-18T21:41:04.422Z,89.29
2022-11-18T21:44:03.502Z,89.57
2022-11-18T21:46:15.688Z,91.11
2022-11-18T21:48:37.674Z,91.13
2022-11-18T21:51:00.646Z,90.34
2022-11-18T21:53:22.086Z,90.07
2022-11-18T21:55:43.564Z,89.31
2022-11-18T21:58:04.992Z,88.92
2022-11-18T22:00:26.447Z,88.91
2022-11-18T22:02:47.912Z,90.03
2022-11-18T22:05:09.713Z,90.04
2022-11-18T22:07:31.183Z,89.97
2022-11-18T22:09:52.776Z,91.75
2022-11-18T22:12:14.311Z,92.91
2022-11-18T22:14:36.427Z,93.55
2022-11-18T22:16:57.937Z,94.07
2022-11-18T22:19:19.446Z,93.67
2022-11-18T22:21:41.075Z,93.59
2022-11-18T22:24:02.533Z,93.88
2022-11-18T22:26:24.072Z,94.06
2022-11-18T22:28:46.647Z,93.35
2022-11-18T22:31:16.155Z,92.58
2022-11-18T22:33:38.310Z,93.18
2022-11-18T22:36:04.734Z,93.26
2022-11-18T22:38:26.467Z,92.05
2022-11-18T22:40:47.901Z,92.74
2022-11-18T22:43:09.333Z,93.18
2022-11-18T22:45:30.796Z,92.23
2022-11-18T22:47:52.259Z,92.18
2022-11-18T22:50:14.583Z,91.58
2022-11-18T22:52:36.659Z,91.26
2022-11-18T22:54:58.109Z,91.62
2022-11-18T22:57:19.580Z,91.52
2022-11-18T22:59:41.032Z,91.64
2022-11-18T23:02:02.559Z,92.21
2022-11-18T23:04:23.992Z,91.71
2022-11-18T23:06:45.556Z,91.44
2022-11-18T23:09:07.002Z,90.49
2022-11-18T23:11:46.838Z,91.02
2022-11-18T23:14:09.988Z,91.37
2022-11-18T23:16:33.028Z,91.05
2022-11-18T23:18:54.487Z,89.50
2022-11-18T23:21:16.021Z,89.68
2022-11-18T23:23:37.474Z,89.78
2022-11-18T23:26:09.545Z,90.28
2022-11-18T23:28:31.171Z,89.92
2022-11-18T23:30:52.644Z,89.62
2022-11-18T23:33:14.120Z,89.52
2022-11-18T23:35:35.704Z,89.22
2022-11-18T23:37:57.131Z,90.03
2022-11-18T23:40:18.713Z,89.50
2022-11-18T23:42:40.138Z,88.86
2022-11-18T23:45:05.235Z,89.21
2022-11-18T23:47:27.195Z,89.02
2022-11-18T23:49:48.668Z,89.57
2022-11-18T23:52:10.683Z,89.08
2022-11-18T23:54:32.193Z,89.52
2022-11-18T23:56:53.810Z,88.96
2022-11-18T23:59:15.281Z,89.72
